sensor_id;sensor_type;location;lat;lon;timestamp;pressure;altitude;pressure_sealevel;temperature;humidity
58991;BME280;44781;53.444;14.476;2023-09-08T00:01:18;102315.58;;;17.46;72.05
58991;BME280;44781;53.444;14.476;2023-09-08T00:03:46;102315.66;;;17.45;72.13
58991;BME280;44781;53.444;14.476;2023-09-08T00:06:12;102313.52;;;17.45;71.98
58991;BME280;44781;53.444;14.476;2023-09-08T00:08:39;102308.55;;;17.45;72.38
58991;BME280;44781;53.444;14.476;2023-09-08T00:11:06;102305.33;;;17.45;72.23
58991;BME280;44781;53.444;14.476;2023-09-08T00:13:36;102302.14;;;17.44;72.29
58991;BME280;44781;53.444;14.476;2023-09-08T00:16:03;102306.42;;;17.45;72.57
58991;BME280;44781;53.444;14.476;2023-09-08T00:18:30;102309.84;;;17.44;72.65
58991;BME280;44781;53.444;14.476;2023-09-08T00:20:57;102305.16;;;17.45;72.78
58991;BME280;44781;53.444;14.476;2023-09-08T00:24:05;102304.21;;;17.45;73.03
58991;BME280;44781;53.444;14.476;2023-09-08T00:26:32;102305.17;;;17.47;73.19
58991;BME280;44781;53.444;14.476;2023-09-08T00:28:59;102301.75;;;17.47;73.18
58991;BME280;44781;53.444;14.476;2023-09-08T00:31:26;102299.69;;;17.46;72.90
58991;BME280;44781;53.444;14.476;2023-09-08T00:33:52;102299.83;;;17.44;72.92
58991;BME280;44781;53.444;14.476;2023-09-08T00:36:19;102297.90;;;17.42;72.76
58991;BME280;44781;53.444;14.476;2023-09-08T00:38:46;102298.58;;;17.38;72.71
58991;BME280;44781;53.444;14.476;2023-09-08T00:41:13;102296.67;;;17.35;72.64
58991;BME280;44781;53.444;14.476;2023-09-08T00:43:40;102293.55;;;17.31;72.81
58991;BME280;44781;53.444;14.476;2023-09-08T00:46:07;102295.38;;;17.28;72.70
58991;BME280;44781;53.444;14.476;2023-09-08T00:48:35;102292.41;;;17.25;72.84
58991;BME280;44781;53.444;14.476;2023-09-08T00:51:14;102293.13;;;17.23;72.90
58991;BME280;44781;53.444;14.476;2023-09-08T00:53:42;102294.66;;;17.22;73.01
58991;BME280;44781;53.444;14.476;2023-09-08T00:56:10;102297.02;;;17.21;73.21
58991;BME280;44781;53.444;14.476;2023-09-08T00:58:38;102300.63;;;17.21;73.21
58991;BME280;44781;53.444;14.476;2023-09-08T01:01:06;102300.87;;;17.20;73.22
58991;BME280;44781;53.444;14.476;2023-09-08T01:03:33;102302.36;;;17.20;73.05
58991;BME280;44781;53.444;14.476;2023-09-08T01:06:01;102300.18;;;17.18;73.02
58991;BME280;44781;53.444;14.476;2023-09-08T01:08:29;102299.22;;;17.16;73.13
58991;BME280;44781;53.444;14.476;2023-09-08T01:10:57;102300.13;;;17.14;73.17
58991;BME280;44781;53.444;14.476;2023-09-08T01:13:27;102297.38;;;17.10;72.99
58991;BME280;44781;53.444;14.476;2023-09-08T01:15:54;102299.15;;;17.06;72.81
58991;BME280;44781;53.444;14.476;2023-09-08T01:18:21;102303.41;;;17.02;73.07
58991;BME280;44781;53.444;14.476;2023-09-08T01:26:10;102303.17;;;16.91;73.34
58991;BME280;44781;53.444;14.476;2023-09-08T01:28:43;102295.71;;;16.88;73.23
58991;BME280;44781;53.444;14.476;2023-09-08T01:31:12;102300.81;;;16.87;73.42
58991;BME280;44781;53.444;14.476;2023-09-08T01:33:40;102298.05;;;16.86;73.77
58991;BME280;44781;53.444;14.476;2023-09-08T01:36:08;102297.39;;;16.85;73.63
58991;BME280;44781;53.444;14.476;2023-09-08T01:38:35;102294.42;;;16.84;73.65
58991;BME280;44781;53.444;14.476;2023-09-08T01:41:02;102294.35;;;16.83;73.33
58991;BME280;44781;53.444;14.476;2023-09-08T01:43:29;102293.38;;;16.81;73.26
58991;BME280;44781;53.444;14.476;2023-09-08T01:45:57;102291.21;;;16.79;73.20
58991;BME280;44781;53.444;14.476;2023-09-08T01:48:23;102290.88;;;16.77;73.16
58991;BME280;44781;53.444;14.476;2023-09-08T01:50:51;102295.91;;;16.74;73.29
58991;BME280;44781;53.444;14.476;2023-09-08T01:53:18;102292.83;;;16.70;73.43
58991;BME280;44781;53.444;14.476;2023-09-08T01:55:45;102291.45;;;16.67;73.45
58991;BME280;44781;53.444;14.476;2023-09-08T01:58:12;102287.44;;;16.64;73.53
58991;BME280;44781;53.444;14.476;2023-09-08T02:00:40;102286.82;;;16.60;73.48
58991;BME280;44781;53.444;14.476;2023-09-08T02:03:07;102288.90;;;16.59;73.54
58991;BME280;44781;53.444;14.476;2023-09-08T02:05:34;102283.48;;;16.57;73.81
58991;BME280;44781;53.444;14.476;2023-09-08T02:08:05;102284.98;;;16.56;73.82
58991;BME280;44781;53.444;14.476;2023-09-08T02:10:33;102284.47;;;16.55;74.00
58991;BME280;44781;53.444;14.476;2023-09-08T02:13:00;102283.30;;;16.54;74.02
58991;BME280;44781;53.444;14.476;2023-09-08T02:15:27;102284.76;;;16.54;74.00
58991;BME280;44781;53.444;14.476;2023-09-08T02:17:56;102287.48;;;16.54;74.06
58991;BME280;44781;53.444;14.476;2023-09-08T02:20:23;102286.46;;;16.53;74.12
58991;BME280;44781;53.444;14.476;2023-09-08T02:22:55;102281.69;;;16.52;73.83
58991;BME280;44781;53.444;14.476;2023-09-08T02:25:25;102275.36;;;16.51;73.80
58991;BME280;44781;53.444;14.476;2023-09-08T02:27:52;102275.51;;;16.49;74.00
58991;BME280;44781;53.444;14.476;2023-09-08T02:30:19;102277.02;;;16.46;73.91
58991;BME280;44781;53.444;14.476;2023-09-08T02:32:46;102278.71;;;16.43;73.84
58991;BME280;44781;53.444;14.476;2023-09-08T02:35:14;102277.52;;;16.40;73.92
58991;BME280;44781;53.444;14.476;2023-09-08T02:37:41;102275.42;;;16.37;74.12
58991;BME280;44781;53.444;14.476;2023-09-08T02:40:08;102273.11;;;16.34;73.95
58991;BME280;44781;53.444;14.476;2023-09-08T02:42:36;102273.18;;;16.33;74.06
58991;BME280;44781;53.444;14.476;2023-09-08T02:45:03;102274.89;;;16.32;74.26
58991;BME280;44781;53.444;14.476;2023-09-08T02:47:30;102270.66;;;16.31;74.82
58991;BME280;44781;53.444;14.476;2023-09-08T02:49:58;102270.80;;;16.32;75.20
58991;BME280;44781;53.444;14.476;2023-09-08T02:52:25;102266.56;;;16.31;75.76
58991;BME280;44781;53.444;14.476;2023-09-08T02:54:56;102269.10;;;16.35;76.48
58991;BME280;44781;53.444;14.476;2023-09-08T02:57:23;102266.31;;;16.37;77.17
58991;BME280;44781;53.444;14.476;2023-09-08T02:59:50;102267.92;;;16.39;77.55
58991;BME280;44781;53.444;14.476;2023-09-08T03:02:26;102266.82;;;16.42;77.42
58991;BME280;44781;53.444;14.476;2023-09-08T03:04:53;102261.13;;;16.44;77.34
58991;BME280;44781;53.444;14.476;2023-09-08T03:07:21;102265.61;;;16.46;76.95
58991;BME280;44781;53.444;14.476;2023-09-08T03:09:48;102262.15;;;16.47;76.90
58991;BME280;44781;53.444;14.476;2023-09-08T03:12:16;102257.70;;;16.49;77.24
58991;BME280;44781;53.444;14.476;2023-09-08T03:14:43;102258.80;;;16.51;77.25
58991;BME280;44781;53.444;14.476;2023-09-08T03:17:11;102250.30;;;16.53;77.57
58991;BME280;44781;53.444;14.476;2023-09-08T03:19:39;102254.18;;;16.55;78.02
58991;BME280;44781;53.444;14.476;2023-09-08T03:22:07;102252.36;;;16.58;78.60
58991;BME280;44781;53.444;14.476;2023-09-08T03:24:34;102253.71;;;16.62;79.05
58991;BME280;44781;53.444;14.476;2023-09-08T03:27:02;102252.72;;;16.65;79.30
58991;BME280;44781;53.444;14.476;2023-09-08T03:29:29;102245.32;;;16.68;79.64
58991;BME280;44781;53.444;14.476;2023-09-08T03:31:56;102245.02;;;16.72;79.87
58991;BME280;44781;53.444;14.476;2023-09-08T03:34:24;102245.27;;;16.75;80.14
58991;BME280;44781;53.444;14.476;2023-09-08T03:36:53;102243.94;;;16.79;80.33
58991;BME280;44781;53.444;14.476;2023-09-08T03:39:21;102242.80;;;16.83;80.68
58991;BME280;44781;53.444;14.476;2023-09-08T03:41:47;102243.29;;;16.86;80.50
58991;BME280;44781;53.444;14.476;2023-09-08T03:44:14;102243.45;;;16.88;80.38
58991;BME280;44781;53.444;14.476;2023-09-08T03:46:41;102244.52;;;16.90;80.62
58991;BME280;44781;53.444;14.476;2023-09-08T03:49:09;102240.06;;;16.92;80.47
58991;BME280;44781;53.444;14.476;2023-09-08T03:51:36;102236.50;;;16.94;80.68
58991;BME280;44781;53.444;14.476;2023-09-08T03:54:03;102239.56;;;16.97;80.66
58991;BME280;44781;53.444;14.476;2023-09-08T03:56:31;102238.55;;;16.98;80.66
58991;BME280;44781;53.444;14.476;2023-09-08T03:58:58;102241.61;;;17.00;80.63
58991;BME280;44781;53.444;14.476;2023-09-08T04:01:25;102240.73;;;17.02;80.40
58991;BME280;44781;53.444;14.476;2023-09-08T04:03:52;102239.56;;;17.03;80.19
58991;BME280;44781;53.444;14.476;2023-09-08T04:06:19;102241.70;;;17.03;79.91
58991;BME280;44781;53.444;14.476;2023-09-08T04:08:46;102244.21;;;17.03;79.44
58991;BME280;44781;53.444;14.476;2023-09-08T04:11:14;102244.33;;;17.02;78.64
58991;BME280;44781;53.444;14.476;2023-09-08T04:13:40;102243.41;;;17.00;78.28
58991;BME280;44781;53.444;14.476;2023-09-08T04:16:08;102242.27;;;16.96;77.85
58991;BME280;44781;53.444;14.476;2023-09-08T04:18:36;102242.27;;;16.92;77.43
58991;BME280;44781;53.444;14.476;2023-09-08T04:21:03;102239.02;;;16.85;76.97
58991;BME280;44781;53.444;14.476;2023-09-08T04:23:30;102243.12;;;16.81;76.77
58991;BME280;44781;53.444;14.476;2023-09-08T04:26:01;102244.32;;;16.74;76.69
58991;BME280;44781;53.444;14.476;2023-09-08T04:28:29;102247.31;;;16.68;76.28
58991;BME280;44781;53.444;14.476;2023-09-08T04:30:56;102248.34;;;16.62;76.16
58991;BME280;44781;53.444;14.476;2023-09-08T04:33:23;102249.85;;;16.56;76.03
58991;BME280;44781;53.444;14.476;2023-09-08T04:35:51;102249.00;;;16.51;75.75
58991;BME280;44781;53.444;14.476;2023-09-08T04:38:17;102250.58;;;16.47;75.49
58991;BME280;44781;53.444;14.476;2023-09-08T04:40:45;102256.27;;;16.42;75.40
58991;BME280;44781;53.444;14.476;2023-09-08T04:43:13;102253.92;;;16.38;75.36
58991;BME280;44781;53.444;14.476;2023-09-08T04:45:46;102252.29;;;16.33;75.73
58991;BME280;44781;53.444;14.476;2023-09-08T04:48:13;102250.96;;;16.30;76.30
58991;BME280;44781;53.444;14.476;2023-09-08T04:50:41;102250.00;;;16.26;76.61
58991;BME280;44781;53.444;14.476;2023-09-08T04:53:08;102250.20;;;16.24;77.23
58991;BME280;44781;53.444;14.476;2023-09-08T04:55:35;102251.48;;;16.23;77.75
58991;BME280;44781;53.444;14.476;2023-09-08T04:58:02;102250.40;;;16.23;78.19
58991;BME280;44781;53.444;14.476;2023-09-08T05:00:29;102248.71;;;16.25;78.84
58991;BME280;44781;53.444;14.476;2023-09-08T05:02:56;102249.21;;;16.27;79.19
58991;BME280;44781;53.444;14.476;2023-09-08T05:05:23;102248.30;;;16.30;79.72
58991;BME280;44781;53.444;14.476;2023-09-08T05:07:51;102248.27;;;16.33;80.45
58991;BME280;44781;53.444;14.476;2023-09-08T05:10:20;102243.29;;;16.37;80.88
58991;BME280;44781;53.444;14.476;2023-09-08T05:12:47;102242.95;;;16.41;81.28
58991;BME280;44781;53.444;14.476;2023-09-08T05:15:14;102244.79;;;16.45;81.73
58991;BME280;44781;53.444;14.476;2023-09-08T05:17:46;102242.48;;;16.50;81.74
58991;BME280;44781;53.444;14.476;2023-09-08T05:20:13;102247.54;;;16.53;81.94
58991;BME280;44781;53.444;14.476;2023-09-08T05:22:41;102244.51;;;16.58;82.03
58991;BME280;44781;53.444;14.476;2023-09-08T05:25:08;102247.65;;;16.64;82.24
58991;BME280;44781;53.444;14.476;2023-09-08T05:27:35;102246.56;;;16.68;82.57
58991;BME280;44781;53.444;14.476;2023-09-08T05:30:03;102241.76;;;16.72;82.79
58991;BME280;44781;53.444;14.476;2023-09-08T05:32:31;102239.70;;;16.79;82.70
58991;BME280;44781;53.444;14.476;2023-09-08T05:34:59;102241.09;;;16.84;83.01
58991;BME280;44781;53.444;14.476;2023-09-08T05:37:26;102238.57;;;16.89;83.00
58991;BME280;44781;53.444;14.476;2023-09-08T05:39:53;102230.50;;;16.89;83.34
58991;BME280;44781;53.444;14.476;2023-09-08T05:42:20;102240.89;;;17.00;83.57
58991;BME280;44781;53.444;14.476;2023-09-08T05:44:47;102236.83;;;17.06;83.74
58991;BME280;44781;53.444;14.476;2023-09-08T05:47:16;102235.77;;;17.12;83.89
58991;BME280;44781;53.444;14.476;2023-09-08T05:49:46;102234.06;;;17.18;84.19
58991;BME280;44781;53.444;14.476;2023-09-08T05:52:13;102231.52;;;17.25;84.20
58991;BME280;44781;53.444;14.476;2023-09-08T05:54:41;102232.36;;;17.33;84.37
58991;BME280;44781;53.444;14.476;2023-09-08T05:57:08;102233.98;;;17.39;84.29
58991;BME280;44781;53.444;14.476;2023-09-08T05:59:35;102230.77;;;17.46;84.50
58991;BME280;44781;53.444;14.476;2023-09-08T06:02:02;102231.69;;;17.52;84.48
58991;BME280;44781;53.444;14.476;2023-09-08T06:04:30;102229.48;;;17.59;84.31
58991;BME280;44781;53.444;14.476;2023-09-08T06:06:59;102229.23;;;17.64;84.44
58991;BME280;44781;53.444;14.476;2023-09-08T06:09:26;102230.56;;;17.70;84.48
58991;BME280;44781;53.444;14.476;2023-09-08T06:11:54;102225.98;;;17.76;84.33
58991;BME280;44781;53.444;14.476;2023-09-08T06:14:21;102229.06;;;17.82;84.24
58991;BME280;44781;53.444;14.476;2023-09-08T06:16:48;102231.23;;;17.88;84.15
58991;BME280;44781;53.444;14.476;2023-09-08T06:19:15;102226.39;;;17.95;84.30
58991;BME280;44781;53.444;14.476;2023-09-08T06:21:42;102224.36;;;18.02;84.28
58991;BME280;44781;53.444;14.476;2023-09-08T06:24:09;102225.90;;;18.08;84.06
58991;BME280;44781;53.444;14.476;2023-09-08T06:26:37;102225.36;;;18.15;83.69
58991;BME280;44781;53.444;14.476;2023-09-08T06:29:04;102226.10;;;18.21;83.53
58991;BME280;44781;53.444;14.476;2023-09-08T06:31:30;102222.52;;;18.27;83.48
58991;BME280;44781;53.444;14.476;2023-09-08T06:33:57;102218.79;;;18.34;83.38
58991;BME280;44781;53.444;14.476;2023-09-08T06:36:24;102221.42;;;18.40;83.32
58991;BME280;44781;53.444;14.476;2023-09-08T06:38:52;102223.08;;;18.48;83.10
58991;BME280;44781;53.444;14.476;2023-09-08T06:41:26;102224.24;;;18.55;82.90
58991;BME280;44781;53.444;14.476;2023-09-08T06:44:00;102222.33;;;18.63;82.49
58991;BME280;44781;53.444;14.476;2023-09-08T06:46:31;102223.49;;;18.70;82.43
58991;BME280;44781;53.444;14.476;2023-09-08T06:48:58;102219.30;;;18.75;81.83
58991;BME280;44781;53.444;14.476;2023-09-08T06:51:26;102220.59;;;18.81;81.62
58991;BME280;44781;53.444;14.476;2023-09-08T06:53:57;102223.66;;;18.87;81.38
58991;BME280;44781;53.444;14.476;2023-09-08T06:56:30;102225.01;;;18.94;81.18
58991;BME280;44781;53.444;14.476;2023-09-08T06:58:57;102226.08;;;19.02;81.18
58991;BME280;44781;53.444;14.476;2023-09-08T07:01:25;102224.52;;;19.10;81.14
58991;BME280;44781;53.444;14.476;2023-09-08T07:03:52;102226.13;;;19.17;80.84
58991;BME280;44781;53.444;14.476;2023-09-08T07:06:19;102225.43;;;19.25;80.71
58991;BME280;44781;53.444;14.476;2023-09-08T07:08:49;102223.41;;;19.34;80.64
58991;BME280;44781;53.444;14.476;2023-09-08T07:11:17;102226.39;;;19.42;80.25
58991;BME280;44781;53.444;14.476;2023-09-08T07:13:44;102234.75;;;19.51;79.99
58991;BME280;44781;53.444;14.476;2023-09-08T07:16:12;102237.77;;;19.59;79.70
58991;BME280;44781;53.444;14.476;2023-09-08T07:18:39;102240.39;;;19.68;79.61
58991;BME280;44781;53.444;14.476;2023-09-08T07:21:07;102237.60;;;19.75;79.42
58991;BME280;44781;53.444;14.476;2023-09-08T07:23:34;102234.71;;;19.83;79.20
58991;BME280;44781;53.444;14.476;2023-09-08T07:26:03;102239.75;;;19.91;78.95
58991;BME280;44781;53.444;14.476;2023-09-08T07:28:31;102242.47;;;19.96;78.44
58991;BME280;44781;53.444;14.476;2023-09-08T07:31:02;102242.15;;;20.02;78.06
58991;BME280;44781;53.444;14.476;2023-09-08T07:33:30;102238.41;;;20.07;77.84
58991;BME280;44781;53.444;14.476;2023-09-08T07:36:04;102234.70;;;20.09;77.63
58991;BME280;44781;53.444;14.476;2023-09-08T07:38:31;102243.55;;;20.17;77.41
58991;BME280;44781;53.444;14.476;2023-09-08T07:41:02;102244.42;;;20.25;77.33
58991;BME280;44781;53.444;14.476;2023-09-08T07:43:30;102245.34;;;20.33;76.90
58991;BME280;44781;53.444;14.476;2023-09-08T07:46:32;102247.23;;;20.41;76.77
58991;BME280;44781;53.444;14.476;2023-09-08T07:48:59;102243.70;;;20.52;76.55
58991;BME280;44781;53.444;14.476;2023-09-08T07:51:27;102241.88;;;20.62;76.29
58991;BME280;44781;53.444;14.476;2023-09-08T07:53:57;102243.10;;;20.72;76.19
58991;BME280;44781;53.444;14.476;2023-09-08T07:56:24;102242.23;;;20.81;75.85
58991;BME280;44781;53.444;14.476;2023-09-08T07:58:51;102238.89;;;20.90;75.56
58991;BME280;44781;53.444;14.476;2023-09-08T08:01:19;102232.98;;;20.97;74.58
58991;BME280;44781;53.444;14.476;2023-09-08T08:03:46;102232.66;;;21.04;74.16
58991;BME280;44781;53.444;14.476;2023-09-08T08:06:13;102236.16;;;21.10;74.03
58991;BME280;44781;53.444;14.476;2023-09-08T08:08:40;102236.14;;;21.18;73.93
58991;BME280;44781;53.444;14.476;2023-09-08T08:11:15;102232.34;;;21.25;73.79
58991;BME280;44781;53.444;14.476;2023-09-08T08:14:01;102233.08;;;21.34;73.92
58991;BME280;44781;53.444;14.476;2023-09-08T08:16:29;102230.98;;;21.43;73.41
58991;BME280;44781;53.444;14.476;2023-09-08T08:18:56;102232.33;;;21.53;73.01
58991;BME280;44781;53.444;14.476;2023-09-08T08:21:24;102229.71;;;21.63;72.37
58991;BME280;44781;53.444;14.476;2023-09-08T08:23:51;102228.36;;;21.73;72.48
58991;BME280;44781;53.444;14.476;2023-09-08T08:26:18;102225.86;;;21.80;72.25
58991;BME280;44781;53.444;14.476;2023-09-08T08:28:49;102227.61;;;21.93;71.92
58991;BME280;44781;53.444;14.476;2023-09-08T08:31:17;102228.80;;;22.02;71.61
58991;BME280;44781;53.444;14.476;2023-09-08T08:33:44;102225.56;;;22.12;71.29
58991;BME280;44781;53.444;14.476;2023-09-08T08:36:11;102220.38;;;22.20;71.14
58991;BME280;44781;53.444;14.476;2023-09-08T08:38:42;102221.11;;;22.29;70.86
58991;BME280;44781;53.444;14.476;2023-09-08T08:41:15;102221.85;;;22.39;70.13
58991;BME280;44781;53.444;14.476;2023-09-08T08:43:54;102220.20;;;22.50;69.38
58991;BME280;44781;53.444;14.476;2023-09-08T08:46:26;102220.59;;;22.61;68.85
58991;BME280;44781;53.444;14.476;2023-09-08T08:48:57;102217.65;;;22.72;68.18
58991;BME280;44781;53.444;14.476;2023-09-08T08:51:26;102213.70;;;22.82;67.29
58991;BME280;44781;53.444;14.476;2023-09-08T08:53:57;102215.23;;;22.95;66.43
58991;BME280;44781;53.444;14.476;2023-09-08T08:56:45;102212.80;;;23.05;65.65
58991;BME280;44781;53.444;14.476;2023-09-08T08:59:19;102207.15;;;23.14;65.27
58991;BME280;44781;53.444;14.476;2023-09-08T09:01:51;102205.63;;;23.23;64.94
58991;BME280;44781;53.444;14.476;2023-09-08T09:04:20;102201.25;;;23.32;64.83
58991;BME280;44781;53.444;14.476;2023-09-08T09:06:48;102199.55;;;23.39;64.34
58991;BME280;44781;53.444;14.476;2023-09-08T09:09:21;102200.98;;;23.48;64.47
58991;BME280;44781;53.444;14.476;2023-09-08T09:11:53;102202.14;;;23.58;64.08
58991;BME280;44781;53.444;14.476;2023-09-08T09:18:34;102200.67;;;23.80;62.90
58991;BME280;44781;53.444;14.476;2023-09-08T09:21:08;102199.73;;;23.90;62.58
58991;BME280;44781;53.444;14.476;2023-09-08T09:23:39;102201.09;;;23.99;62.03
58991;BME280;44781;53.444;14.476;2023-09-08T09:26:26;102194.92;;;24.08;61.60
58991;BME280;44781;53.444;14.476;2023-09-08T09:28:56;102192.27;;;24.17;61.38
58991;BME280;44781;53.444;14.476;2023-09-08T09:31:27;102188.63;;;24.26;61.23
58991;BME280;44781;53.444;14.476;2023-09-08T09:34:13;102188.20;;;24.34;60.96
58991;BME280;44781;53.444;14.476;2023-09-08T09:36:47;102184.14;;;24.43;60.47
58991;BME280;44781;53.444;14.476;2023-09-08T09:39:22;102190.96;;;24.53;60.14
58991;BME280;44781;53.444;14.476;2023-09-08T09:41:56;102191.77;;;24.62;58.99
58991;BME280;44781;53.444;14.476;2023-09-08T09:44:24;102192.02;;;24.72;57.75
58991;BME280;44781;53.444;14.476;2023-09-08T09:46:53;102185.35;;;24.80;56.98
58991;BME280;44781;53.444;14.476;2023-09-08T09:49:23;102176.73;;;24.89;56.72
58991;BME280;44781;53.444;14.476;2023-09-08T09:51:57;102173.88;;;24.96;56.07
58991;BME280;44781;53.444;14.476;2023-09-08T09:54:25;102168.81;;;25.00;55.27
58991;BME280;44781;53.444;14.476;2023-09-08T09:56:52;102179.06;;;25.14;54.71
58991;BME280;44781;53.444;14.476;2023-09-08T09:59:20;102182.16;;;25.22;54.16
58991;BME280;44781;53.444;14.476;2023-09-08T10:01:48;102182.35;;;25.30;53.90
58991;BME280;44781;53.444;14.476;2023-09-08T10:04:16;102183.96;;;25.38;53.48
58991;BME280;44781;53.444;14.476;2023-09-08T10:06:46;102173.70;;;25.42;53.19
58991;BME280;44781;53.444;14.476;2023-09-08T10:09:15;102170.37;;;25.50;53.10
58991;BME280;44781;53.444;14.476;2023-09-08T10:11:54;102177.20;;;25.63;53.12
58991;BME280;44781;53.444;14.476;2023-09-08T10:14:23;102179.35;;;25.72;53.26
58991;BME280;44781;53.444;14.476;2023-09-08T10:16:53;102180.63;;;25.81;53.16
58991;BME280;44781;53.444;14.476;2023-09-08T10:19:26;102176.19;;;25.90;53.26
58991;BME280;44781;53.444;14.476;2023-09-08T10:22:01;102177.27;;;25.99;53.23
58991;BME280;44781;53.444;14.476;2023-09-08T10:24:34;102174.77;;;26.08;52.62
58991;BME280;44781;53.444;14.476;2023-09-08T10:27:10;102169.11;;;26.17;52.18
58991;BME280;44781;53.444;14.476;2023-09-08T10:29:42;102166.15;;;26.26;52.34
58991;BME280;44781;53.444;14.476;2023-09-08T10:32:09;102165.89;;;26.35;52.00
58991;BME280;44781;53.444;14.476;2023-09-08T10:34:38;102166.25;;;26.42;51.37
58991;BME280;44781;53.444;14.476;2023-09-08T10:37:23;102165.85;;;26.50;50.92
58991;BME280;44781;53.444;14.476;2023-09-08T10:40:42;102161.25;;;26.58;50.44
58991;BME280;44781;53.444;14.476;2023-09-08T10:42:44;102162.88;;;26.67;50.02
58991;BME280;44781;53.444;14.476;2023-09-08T10:45:18;102156.08;;;26.75;49.57
58991;BME280;44781;53.444;14.476;2023-09-08T10:50:25;102155.33;;;26.93;48.67
58991;BME280;44781;53.444;14.476;2023-09-08T10:55:55;102149.50;;;27.10;47.85
58991;BME280;44781;53.444;14.476;2023-09-08T11:01:02;102140.73;;;27.27;46.94
58991;BME280;44781;53.444;14.476;2023-09-08T11:06:18;102139.36;;;27.45;46.72
58991;BME280;44781;53.444;14.476;2023-09-08T11:08:46;102141.19;;;27.53;46.35
58991;BME280;44781;53.444;14.476;2023-09-08T11:11:16;102138.33;;;27.60;46.00
58991;BME280;44781;53.444;14.476;2023-09-08T11:13:49;102140.80;;;27.68;45.83
58991;BME280;44781;53.444;14.476;2023-09-08T11:16:19;102141.33;;;27.75;45.72
58991;BME280;44781;53.444;14.476;2023-09-08T11:18:51;102138.52;;;27.85;45.64
58991;BME280;44781;53.444;14.476;2023-09-08T11:21:21;102135.00;;;27.95;45.09
58991;BME280;44781;53.444;14.476;2023-09-08T11:23:48;102132.42;;;28.03;44.81
58991;BME280;44781;53.444;14.476;2023-09-08T11:26:15;102132.64;;;28.13;44.41
58991;BME280;44781;53.444;14.476;2023-09-08T11:28:43;102131.61;;;28.22;44.06
58991;BME280;44781;53.444;14.476;2023-09-08T11:31:13;102127.89;;;28.31;43.72
58991;BME280;44781;53.444;14.476;2023-09-08T11:33:40;102130.57;;;28.40;43.52
58991;BME280;44781;53.444;14.476;2023-09-08T11:36:13;102126.05;;;28.49;43.36
58991;BME280;44781;53.444;14.476;2023-09-08T11:38:43;102123.85;;;28.59;43.25
58991;BME280;44781;53.444;14.476;2023-09-08T11:41:12;102118.30;;;28.70;43.00
58991;BME280;44781;53.444;14.476;2023-09-08T11:43:42;102116.33;;;28.81;43.12
58991;BME280;44781;53.444;14.476;2023-09-08T11:46:10;102114.17;;;28.91;43.34
58991;BME280;44781;53.444;14.476;2023-09-08T11:48:38;102110.16;;;29.02;43.11
58991;BME280;44781;53.444;14.476;2023-09-08T11:51:09;102102.34;;;29.10;42.83
58991;BME280;44781;53.444;14.476;2023-09-08T11:53:44;102107.13;;;29.25;42.51
58991;BME280;44781;53.444;14.476;2023-09-08T11:56:11;102104.73;;;29.36;42.39
58991;BME280;44781;53.444;14.476;2023-09-08T11:58:42;102105.95;;;29.47;42.06
58991;BME280;44781;53.444;14.476;2023-09-08T12:01:10;102107.54;;;29.58;42.12
58991;BME280;44781;53.444;14.476;2023-09-08T12:03:54;102106.08;;;29.68;42.12
58991;BME280;44781;53.444;14.476;2023-09-08T12:06:27;102105.11;;;29.81;41.90
58991;BME280;44781;53.444;14.476;2023-09-08T12:08:56;102102.28;;;29.92;41.99
58991;BME280;44781;53.444;14.476;2023-09-08T12:11:35;102103.92;;;30.04;41.30
58991;BME280;44781;53.444;14.476;2023-09-08T12:14:10;102096.52;;;30.15;40.82
58991;BME280;44781;53.444;14.476;2023-09-08T12:16:37;102097.71;;;30.26;40.38
58991;BME280;44781;53.444;14.476;2023-09-08T12:19:05;102089.63;;;30.37;40.35
58991;BME280;44781;53.444;14.476;2023-09-08T12:21:54;102084.98;;;30.49;40.40
58991;BME280;44781;53.444;14.476;2023-09-08T12:27:20;102081.58;;;30.79;39.61
58991;BME280;44781;53.444;14.476;2023-09-08T12:29:58;102078.80;;;30.92;39.42
58991;BME280;44781;53.444;14.476;2023-09-08T12:32:30;102076.73;;;31.05;39.20
58991;BME280;44781;53.444;14.476;2023-09-08T12:34:57;102075.21;;;31.16;38.84
58991;BME280;44781;53.444;14.476;2023-09-08T12:37:25;102073.23;;;31.25;38.47
58991;BME280;44781;53.444;14.476;2023-09-08T12:39:56;102071.26;;;31.35;38.20
58991;BME280;44781;53.444;14.476;2023-09-08T12:42:23;102068.44;;;31.46;38.12
58991;BME280;44781;53.444;14.476;2023-09-08T12:44:56;102063.16;;;31.57;37.95
58991;BME280;44781;53.444;14.476;2023-09-08T12:47:23;102056.95;;;31.68;37.75
58991;BME280;44781;53.444;14.476;2023-09-08T12:49:50;102057.58;;;31.80;37.80
58991;BME280;44781;53.444;14.476;2023-09-08T12:52:18;102053.91;;;31.91;37.29
58991;BME280;44781;53.444;14.476;2023-09-08T12:54:45;102051.14;;;32.03;36.95
58991;BME280;44781;53.444;14.476;2023-09-08T12:57:12;102044.83;;;32.13;36.80
58991;BME280;44781;53.444;14.476;2023-09-08T12:59:39;102048.20;;;32.24;36.23
58991;BME280;44781;53.444;14.476;2023-09-08T13:02:06;102046.24;;;32.31;36.21
58991;BME280;44781;53.444;14.476;2023-09-08T13:04:33;102035.55;;;32.38;35.91
58991;BME280;44781;53.444;14.476;2023-09-08T13:07:00;102038.06;;;32.46;35.88
58991;BME280;44781;53.444;14.476;2023-09-08T13:09:28;102033.66;;;32.54;35.58
58991;BME280;44781;53.444;14.476;2023-09-08T13:11:55;102032.71;;;32.62;35.42
58991;BME280;44781;53.444;14.476;2023-09-08T13:14:34;102027.20;;;32.70;35.19